地図

経路データ

SID SEASON NUMBER BASIN SUBBASIN NAME ISO_TIME NATURE LAT LON WMO_WIND WMO_PRES WMO_AGENCY TRACK_TYPE DIST2LAND LANDFALL IFLAG USA_AGENCY USA_ATCF_ID USA_LAT USA_LON USA_RECORD USA_STATUS USA_WIND USA_PRES USA_SSHS USA_R34_NE USA_R34_SE USA_R34_SW USA_R34_NW USA_R50_NE USA_R50_SE USA_R50_SW USA_R50_NW USA_R64_NE USA_R64_SE USA_R64_SW USA_R64_NW USA_POCI USA_ROCI USA_RMW USA_EYE TOKYO_LAT TOKYO_LON TOKYO_GRADE TOKYO_WIND TOKYO_PRES TOKYO_R50_DIR TOKYO_R50_LONG TOKYO_R50_SHORT TOKYO_R30_DIR TOKYO_R30_LONG TOKYO_R30_SHORT TOKYO_LAND CMA_LAT CMA_LON CMA_CAT CMA_WIND CMA_PRES HKO_LAT HKO_LON HKO_CAT HKO_WIND HKO_PRES NEWDELHI_LAT NEWDELHI_LON NEWDELHI_GRADE NEWDELHI_WIND NEWDELHI_PRES NEWDELHI_CI NEWDELHI_DP NEWDELHI_POCI REUNION_LAT REUNION_LON REUNION_TYPE REUNION_WIND REUNION_PRES REUNION_TNUM REUNION_CI REUNION_RMW REUNION_R34_NE REUNION_R34_SE REUNION_R34_SW REUNION_R34_NW REUNION_R50_NE REUNION_R50_SE REUNION_R50_SW REUNION_R50_NW REUNION_R64_NE REUNION_R64_SE REUNION_R64_SW REUNION_R64_NW BOM_LAT BOM_LON BOM_TYPE BOM_WIND BOM_PRES BOM_TNUM BOM_CI BOM_RMW BOM_R34_NE BOM_R34_SE BOM_R34_SW BOM_R34_NW BOM_R50_NE BOM_R50_SE BOM_R50_SW BOM_R50_NW BOM_R64_NE BOM_R64_SE BOM_R64_SW BOM_R64_NW BOM_ROCI BOM_POCI BOM_EYE BOM_POS_METHOD BOM_PRES_METHOD NADI_LAT NADI_LON NADI_CAT NADI_WIND NADI_PRES WELLINGTON_LAT WELLINGTON_LON WELLINGTON_WIND WELLINGTON_PRES DS824_LAT DS824_LON DS824_STAGE DS824_WIND DS824_PRES TD9636_LAT TD9636_LON TD9636_STAGE TD9636_WIND TD9636_PRES TD9635_LAT TD9635_LON TD9635_WIND TD9635_PRES TD9635_ROCI NEUMANN_LAT NEUMANN_LON NEUMANN_CLASS NEUMANN_WIND NEUMANN_PRES MLC_LAT MLC_LON MLC_CLASS MLC_WIND MLC_PRES USA_GUST BOM_GUST BOM_GUST_PER REUNION_GUST REUNION_GUST_PER USA_SEAHGT USA_SEARAD_NE USA_SEARAD_SE USA_SEARAD_SW USA_SEARAD_NW STORM_SPEED STORM_DIR
1933299N28285 1933 70 NA NA NOT_NAMED 1933-10-26 00:00:00 ET 27.8000 -75.2000 35 hurdat_atl main 410 410 O_____________ hurdat_atl AL191933 27.8000 -75.2000 EX 35 -4 7 31
1933299N28285 1933 70 NA NA NOT_NAMED 1933-10-26 03:00:00 ET 28.1001 -74.9927 main 448 448 P_____________ AL191933 28.1001 -74.9927 EX 37 -4 7 31
1933299N28285 1933 70 NA NA NOT_NAMED 1933-10-26 06:00:00 TS 28.4000 -74.8000 40 hurdat_atl main 486 486 O_____________ hurdat_atl AL191933 28.4000 -74.8000 TS 40 0 7 28
1933299N28285 1933 70 NA NA NOT_NAMED 1933-10-26 09:00:00 TS 28.7000 -74.6349 main 524 524 P_____________ AL191933 28.7000 -74.6349 TS 42 0 7 24
1933299N28285 1933 70 NA NA NOT_NAMED 1933-10-26 12:00:00 TS 29.0000 -74.5000 45 hurdat_atl main 556 556 O_____________ hurdat_atl AL191933 29.0000 -74.5000 TS 45 0 6 20
1933299N28285 1933 70 NA NA NOT_NAMED 1933-10-26 15:00:00 TS 29.3000 -74.3924 main 588 588 P_____________ AL191933 29.3000 -74.3924 TS 45 0 6 16
1933299N28285 1933 70 NA NA NOT_NAMED 1933-10-26 18:00:00 TS 29.6000 -74.3000 45 hurdat_atl main 593 572 O_____________ hurdat_atl AL191933 29.6000 -74.3000 TS 45 0 6 16
1933299N28285 1933 70 NA NA NOT_NAMED 1933-10-26 21:00:00 TS 29.9000 -74.1999 main 572 549 P_____________ AL191933 29.9000 -74.1999 TS 47 0 6 16
1933299N28285 1933 70 NA NA NOT_NAMED 1933-10-27 00:00:00 TS 30.2000 -74.1000 50 hurdat_atl main 549 523 O_____________ hurdat_atl AL191933 30.2000 -74.1000 TS 50 0 6 16
1933299N28285 1933 70 NA NA NOT_NAMED 1933-10-27 03:00:00 TS 30.4925 -74.0073 main 523 497 P_____________ AL191933 30.4925 -74.0073 TS 52 0 6 16
1933299N28285 1933 70 NA NA NOT_NAMED 1933-10-27 06:00:00 TS 30.8000 -73.9000 55 hurdat_atl main 497 473 O_____________ hurdat_atl AL191933 30.8000 -73.9000 TS 55 0 6 17
1933299N28285 1933 70 NA NA NOT_NAMED 1933-10-27 09:00:00 TS 31.1049 -73.7868 main 473 447 P_____________ AL191933 31.1049 -73.7868 TS 55 0 7 20
1933299N28285 1933 70 NA NA NOT_NAMED 1933-10-27 12:00:00 TS 31.5000 -73.6000 55 hurdat_atl main 447 422 O_____________ hurdat_atl AL191933 31.5000 -73.6000 TS 55 0 10 23
1933299N28285 1933 70 NA NA NOT_NAMED 1933-10-27 15:00:00 TS 32.0473 -73.3095 main 422 398 P_____________ AL191933 32.0473 -73.3095 TS 57 0 13 26
1933299N28285 1933 70 NA NA NOT_NAMED 1933-10-27 18:00:00 TS 32.7000 -72.9000 60 hurdat_atl main 398 389 O_____________ hurdat_atl AL191933 32.7000 -72.9000 TS 60 0 15 30
1933299N28285 1933 70 NA NA NOT_NAMED 1933-10-27 21:00:00 TS 33.3774 -72.3945 main 388 381 P_____________ AL191933 33.3774 -72.3945 TS 60 0 17 33
1933299N28285 1933 70 NA NA NOT_NAMED 1933-10-28 00:00:00 TS 34.1000 -71.8000 60 hurdat_atl main 386 383 O_____________ hurdat_atl AL191933 34.1000 -71.8000 TS 60 0 18 34
1933299N28285 1933 70 NA NA NOT_NAMED 1933-10-28 03:00:00 TS 34.8419 -71.1935 main 404 401 P_____________ AL191933 34.8419 -71.1935 TS 60 0 18 35
1933299N28285 1933 70 NA NA NOT_NAMED 1933-10-28 06:00:00 TS 35.6000 -70.5000 60 hurdat_atl main 450 450 O_____________ hurdat_atl AL191933 35.6000 -70.5000 TS 60 0 19 39
1933299N28285 1933 70 NA NA NOT_NAMED 1933-10-28 09:00:00 TS 36.3042 -69.7136 main 523 521 P_____________ AL191933 36.3042 -69.7136 TS 60 0 20 42
1933299N28285 1933 70 NA NA NOT_NAMED 1933-10-28 12:00:00 TS 37.1000 -68.8000 60 hurdat_atl main 516 442 O_____________ hurdat_atl AL191933 37.1000 -68.8000 TS 60 0 24 41
1933299N28285 1933 70 NA NA NOT_NAMED 1933-10-28 15:00:00 TS 38.1126 -67.7378 main 445 398 P_____________ AL191933 38.1126 -67.7378 TS 62 0 27 39
1933299N28285 1933 70 NA NA NOT_NAMED 1933-10-28 18:00:00 ET 39.2000 -66.6000 65 hurdat_atl main 399 367 O_____________ hurdat_atl AL191933 39.2000 -66.6000 EX 65 -4 28 40
1933299N28285 1933 70 NA NA NOT_NAMED 1933-10-28 21:00:00 ET 40.2529 -65.4337 main 356 266 P_____________ AL191933 40.2529 -65.4337 EX 67 -4 26 40
1933299N28285 1933 70 NA NA NOT_NAMED 1933-10-29 00:00:00 ET 41.2000 -64.4000 70 hurdat_atl main 266 220 O_____________ hurdat_atl AL191933 41.2000 -64.4000 EX 70 -4 22 39
1933299N28285 1933 70 NA NA NOT_NAMED 1933-10-29 03:00:00 ET 41.9436 -63.6408 main 225 191 P_____________ AL191933 41.9436 -63.6408 EX 70 -4 17 35
1933299N28285 1933 70 NA NA NOT_NAMED 1933-10-29 06:00:00 ET 42.6000 -63.1000 70 hurdat_atl main 191 141 O_____________ hurdat_atl AL191933 42.6000 -63.1000 EX 70 -4 15 28
1933299N28285 1933 70 NA NA NOT_NAMED 1933-10-29 09:00:00 ET 43.2994 -62.6531 main 141 87 P_____________ AL191933 43.2994 -62.6531 EX 70 -4 15 23
1933299N28285 1933 70 NA NA NOT_NAMED 1933-10-29 12:00:00 ET 44.0000 -62.3000 70 hurdat_atl main 87 33 O_____________ hurdat_atl AL191933 44.0000 -62.3000 EX 70 -4 15 20
1933299N28285 1933 70 NA NA NOT_NAMED 1933-10-29 15:00:00 ET 44.6998 -61.9414 main 33 0 P_____________ AL191933 44.6998 -61.9414 EX 62 -4 15 20
1933299N28285 1933 70 NA NA NOT_NAMED 1933-10-29 18:00:00 ET 45.4000 -61.6000 55 hurdat_atl main 0 0 O_____________ hurdat_atl AL191933 45.4000 -61.6000 EX 55 -4 15 19
1933299N28285 1933 70 NA NA NOT_NAMED 1933-10-29 21:00:00 ET 46.1073 -61.2565 main 0 0 P_____________ AL191933 46.1073 -61.2565 EX 52 -4 15 19
1933299N28285 1933 70 NA NA NOT_NAMED 1933-10-30 00:00:00 ET 46.8000 -60.9000 50 hurdat_atl main 7 7 O_____________ hurdat_atl AL191933 46.8000 -60.9000 EX 50 -4 14 21
1933299N28285 1933 70 NA NA NOT_NAMED 1933-10-30 03:00:00 ET 47.4648 -60.5140 main 66 53 P_____________ AL191933 47.4648 -60.5140 EX 47 -4 14 23
1933299N28285 1933 70 NA NA NOT_NAMED 1933-10-30 06:00:00 ET 48.1000 -60.1000 45 hurdat_atl main 56 43 O_____________ hurdat_atl AL191933 48.1000 -60.1000 EX 45 -4 14 25
1933299N28285 1933 70 NA NA NOT_NAMED 1933-10-30 09:00:00 ET 48.7001 -59.6419 main 38 36 P_____________ AL191933 48.7001 -59.6419 EX 42 -4 13 26
1933299N28285 1933 70 NA NA NOT_NAMED 1933-10-30 12:00:00 ET 49.3000 -59.2000 40 hurdat_atl main 66 58 O_____________ hurdat_atl AL191933 49.3000 -59.2000 EX 40 -4 13 23
1933299N28285 1933 70 NA NA NOT_NAMED 1933-10-30 15:00:00 ET 49.9375 -58.8290 main 61 35 P_____________ AL191933 49.9375 -58.8290 EX 40 -4 14 19
1933299N28285 1933 70 NA NA NOT_NAMED 1933-10-30 18:00:00 ET 50.6000 -58.5000 40 hurdat_atl main 36 O_____________ hurdat_atl AL191933 50.6000 -58.5000 EX 40 -4 14 17

IBTrACS Databaseについて

本データベースは、米国NOAAが公開する1842年以降の世界の熱帯低気圧のベストトラックデータアーカイブInternational Best Track Archive for Climate Stewardship (IBTrACS)を、ウェブで閲覧しやすい形式に変換したものです。

最終更新日:2021-10-19